sensor_id;sensor_type;location;lat;lon;timestamp;temperature;humidity
29777;DHT22;16677;52.224;7.484;2023-02-01T00:00:30;5.30;1.00
29777;DHT22;16677;52.224;7.484;2023-02-01T00:02:57;5.30;1.00
29777;DHT22;16677;52.224;7.484;2023-02-01T00:05:24;5.30;1.00
29777;DHT22;16677;52.224;7.484;2023-02-01T00:07:51;5.20;1.00
29777;DHT22;16677;52.224;7.484;2023-02-01T00:10:17;5.30;1.00
29777;DHT22;16677;52.224;7.484;2023-02-01T00:12:44;5.30;1.00
29777;DHT22;16677;52.224;7.484;2023-02-01T00:15:12;5.20;1.00
29777;DHT22;16677;52.224;7.484;2023-02-01T00:17:38;5.20;1.00
29777;DHT22;16677;52.224;7.484;2023-02-01T00:20:06;5.20;1.00
29777;DHT22;16677;52.224;7.484;2023-02-01T00:22:33;5.20;1.00
29777;DHT22;16677;52.224;7.484;2023-02-01T00:24:59;5.30;1.00
29777;DHT22;16677;52.224;7.484;2023-02-01T00:27:26;5.30;1.00
29777;DHT22;16677;52.224;7.484;2023-02-01T00:29:54;5.30;99.90
29777;DHT22;16677;52.224;7.484;2023-02-01T00:32:22;5.30;99.90
29777;DHT22;16677;52.224;7.484;2023-02-01T00:34:49;5.40;99.90
29777;DHT22;16677;52.224;7.484;2023-02-01T00:37:15;5.30;99.90
29777;DHT22;16677;52.224;7.484;2023-02-01T00:39:42;5.20;99.90
29777;DHT22;16677;52.224;7.484;2023-02-01T00:42:09;5.30;99.90
29777;DHT22;16677;52.224;7.484;2023-02-01T00:44:36;5.30;99.90
29777;DHT22;16677;52.224;7.484;2023-02-01T00:47:03;5.30;99.90
29777;DHT22;16677;52.224;7.484;2023-02-01T00:49:30;5.30;1.00
29777;DHT22;16677;52.224;7.484;2023-02-01T00:51:57;5.30;1.00
29777;DHT22;16677;52.224;7.484;2023-02-01T00:54:24;5.30;1.00
29777;DHT22;16677;52.224;7.484;2023-02-01T00:56:51;5.30;1.00
29777;DHT22;16677;52.224;7.484;2023-02-01T00:59:18;5.30;1.00
29777;DHT22;16677;52.224;7.484;2023-02-01T01:01:45;5.70;1.00
29777;DHT22;16677;52.224;7.484;2023-02-01T01:04:12;5.30;1.00
29777;DHT22;16677;52.224;7.484;2023-02-01T01:06:38;5.40;1.00
29777;DHT22;16677;52.224;7.484;2023-02-01T01:09:07;5.30;1.00
29777;DHT22;16677;52.224;7.484;2023-02-01T01:11:36;5.40;1.00
29777;DHT22;16677;52.224;7.484;2023-02-01T01:14:04;5.40;1.00
29777;DHT22;16677;52.224;7.484;2023-02-01T01:16:32;5.40;1.00
29777;DHT22;16677;52.224;7.484;2023-02-01T01:18:59;5.40;1.00
29777;DHT22;16677;52.224;7.484;2023-02-01T01:21:28;5.50;1.00
29777;DHT22;16677;52.224;7.484;2023-02-01T01:23:55;5.50;1.00
29777;DHT22;16677;52.224;7.484;2023-02-01T01:26:25;5.40;1.00
29777;DHT22;16677;52.224;7.484;2023-02-01T01:28:54;5.50;1.00
29777;DHT22;16677;52.224;7.484;2023-02-01T01:31:21;5.50;1.00
29777;DHT22;16677;52.224;7.484;2023-02-01T01:33:53;5.50;1.00
29777;DHT22;16677;52.224;7.484;2023-02-01T01:36:20;5.60;1.00
29777;DHT22;16677;52.224;7.484;2023-02-01T01:38:47;5.60;1.00
29777;DHT22;16677;52.224;7.484;2023-02-01T01:41:20;5.70;1.00
29777;DHT22;16677;52.224;7.484;2023-02-01T01:46:29;5.60;1.00
29777;DHT22;16677;52.224;7.484;2023-02-01T01:51:52;5.60;1.00
29777;DHT22;16677;52.224;7.484;2023-02-01T01:54:35;5.60;1.00
29777;DHT22;16677;52.224;7.484;2023-02-01T01:57:14;5.60;1.00
29777;DHT22;16677;52.224;7.484;2023-02-01T01:59:53;5.60;1.00
29777;DHT22;16677;52.224;7.484;2023-02-01T02:02:21;5.60;1.00
29777;DHT22;16677;52.224;7.484;2023-02-01T02:04:48;5.70;1.00
29777;DHT22;16677;52.224;7.484;2023-02-01T02:07:19;5.60;1.00
29777;DHT22;16677;52.224;7.484;2023-02-01T02:09:47;5.60;1.00
29777;DHT22;16677;52.224;7.484;2023-02-01T02:12:25;5.50;1.00
29777;DHT22;16677;52.224;7.484;2023-02-01T02:14:53;5.50;1.00
29777;DHT22;16677;52.224;7.484;2023-02-01T02:31:25;5.60;1.00
29777;DHT22;16677;52.224;7.484;2023-02-01T02:34:03;5.60;1.00
29777;DHT22;16677;52.224;7.484;2023-02-01T02:45:08;5.60;1.00
29777;DHT22;16677;52.224;7.484;2023-02-01T02:48:15;5.60;1.00
29777;DHT22;16677;52.224;7.484;2023-02-01T02:50:53;5.60;1.00
29777;DHT22;16677;52.224;7.484;2023-02-01T02:54:01;5.60;1.00
29777;DHT22;16677;52.224;7.484;2023-02-01T02:57:06;5.70;1.00
29777;DHT22;16677;52.224;7.484;2023-02-01T02:59:56;5.80;1.00
29777;DHT22;16677;52.224;7.484;2023-02-01T03:02:43;5.60;1.00
29777;DHT22;16677;52.224;7.484;2023-02-01T03:05:39;5.70;1.00
29777;DHT22;16677;52.224;7.484;2023-02-01T03:08:13;5.60;1.00
29777;DHT22;16677;52.224;7.484;2023-02-01T03:21:35;5.70;99.90
29777;DHT22;16677;52.224;7.484;2023-02-01T03:24:19;5.60;99.90
29777;DHT22;16677;52.224;7.484;2023-02-01T03:26:55;5.60;1.00
29777;DHT22;16677;52.224;7.484;2023-02-01T03:29:25;5.60;1.00
29777;DHT22;16677;52.224;7.484;2023-02-01T03:31:54;5.60;1.00
29777;DHT22;16677;52.224;7.484;2023-02-01T03:34:21;5.60;1.00
29777;DHT22;16677;52.224;7.484;2023-02-01T03:36:52;5.50;1.00
29777;DHT22;16677;52.224;7.484;2023-02-01T03:39:32;5.60;1.00
29777;DHT22;16677;52.224;7.484;2023-02-01T03:42:21;5.60;1.00
29777;DHT22;16677;52.224;7.484;2023-02-01T03:45:03;5.70;1.00
29777;DHT22;16677;52.224;7.484;2023-02-01T03:47:35;5.60;1.00
29777;DHT22;16677;52.224;7.484;2023-02-01T03:50:10;5.60;1.00
29777;DHT22;16677;52.224;7.484;2023-02-01T03:52:46;5.70;1.00
29777;DHT22;16677;52.224;7.484;2023-02-01T03:55:16;5.70;1.00
29777;DHT22;16677;52.224;7.484;2023-02-01T03:57:48;5.60;1.00
29777;DHT22;16677;52.224;7.484;2023-02-01T04:00:20;5.60;1.00
29777;DHT22;16677;52.224;7.484;2023-02-01T04:02:49;5.60;1.00
29777;DHT22;16677;52.224;7.484;2023-02-01T04:05:16;5.60;1.00
29777;DHT22;16677;52.224;7.484;2023-02-01T04:07:43;5.60;1.00
29777;DHT22;16677;52.224;7.484;2023-02-01T04:10:11;5.60;1.00
29777;DHT22;16677;52.224;7.484;2023-02-01T04:12:39;5.60;1.00
29777;DHT22;16677;52.224;7.484;2023-02-01T04:15:06;5.60;1.00
29777;DHT22;16677;52.224;7.484;2023-02-01T04:17:34;5.60;1.00
29777;DHT22;16677;52.224;7.484;2023-02-01T04:20:01;5.60;1.00
29777;DHT22;16677;52.224;7.484;2023-02-01T04:22:28;5.60;1.00
29777;DHT22;16677;52.224;7.484;2023-02-01T04:24:55;5.60;1.00
29777;DHT22;16677;52.224;7.484;2023-02-01T04:27:22;5.60;1.00
29777;DHT22;16677;52.224;7.484;2023-02-01T04:29:48;5.60;1.00
29777;DHT22;16677;52.224;7.484;2023-02-01T04:32:19;5.60;1.00
29777;DHT22;16677;52.224;7.484;2023-02-01T04:34:44;5.60;1.00
29777;DHT22;16677;52.224;7.484;2023-02-01T04:37:11;5.50;1.00
29777;DHT22;16677;52.224;7.484;2023-02-01T04:39:45;5.60;1.00
29777;DHT22;16677;52.224;7.484;2023-02-01T04:42:15;5.50;1.00
29777;DHT22;16677;52.224;7.484;2023-02-01T04:44:45;5.50;1.00
29777;DHT22;16677;52.224;7.484;2023-02-01T04:47:12;5.50;1.00
29777;DHT22;16677;52.224;7.484;2023-02-01T04:49:39;5.60;1.00
29777;DHT22;16677;52.224;7.484;2023-02-01T04:52:09;5.50;1.00
29777;DHT22;16677;52.224;7.484;2023-02-01T04:54:36;5.50;1.00
29777;DHT22;16677;52.224;7.484;2023-02-01T04:57:03;5.40;1.00
29777;DHT22;16677;52.224;7.484;2023-02-01T04:59:31;5.50;1.00
29777;DHT22;16677;52.224;7.484;2023-02-01T05:01:58;5.50;1.00
29777;DHT22;16677;52.224;7.484;2023-02-01T05:04:28;5.40;1.00
29777;DHT22;16677;52.224;7.484;2023-02-01T05:06:55;5.40;1.00
29777;DHT22;16677;52.224;7.484;2023-02-01T05:09:26;5.40;1.00
29777;DHT22;16677;52.224;7.484;2023-02-01T05:11:53;5.40;1.00
29777;DHT22;16677;52.224;7.484;2023-02-01T05:14:39;5.40;1.00
29777;DHT22;16677;52.224;7.484;2023-02-01T05:17:06;5.50;1.00
29777;DHT22;16677;52.224;7.484;2023-02-01T05:19:42;5.40;1.00
29777;DHT22;16677;52.224;7.484;2023-02-01T05:22:09;5.40;1.00
29777;DHT22;16677;52.224;7.484;2023-02-01T05:24:36;5.50;1.00
29777;DHT22;16677;52.224;7.484;2023-02-01T05:27:03;5.40;1.00
29777;DHT22;16677;52.224;7.484;2023-02-01T05:29:30;5.50;1.00
29777;DHT22;16677;52.224;7.484;2023-02-01T05:31:57;5.40;1.00
29777;DHT22;16677;52.224;7.484;2023-02-01T05:34:40;5.50;1.00
29777;DHT22;16677;52.224;7.484;2023-02-01T05:37:09;5.50;1.00
29777;DHT22;16677;52.224;7.484;2023-02-01T05:39:36;5.50;1.00
29777;DHT22;16677;52.224;7.484;2023-02-01T05:42:05;5.50;1.00
29777;DHT22;16677;52.224;7.484;2023-02-01T05:44:32;5.60;1.00
29777;DHT22;16677;52.224;7.484;2023-02-01T05:46:59;5.60;1.00
29777;DHT22;16677;52.224;7.484;2023-02-01T05:49:26;5.50;1.00
29777;DHT22;16677;52.224;7.484;2023-02-01T05:51:53;5.60;1.00
29777;DHT22;16677;52.224;7.484;2023-02-01T05:54:20;5.60;1.00
29777;DHT22;16677;52.224;7.484;2023-02-01T05:56:46;5.70;1.00
29777;DHT22;16677;52.224;7.484;2023-02-01T05:59:13;5.70;1.00
29777;DHT22;16677;52.224;7.484;2023-02-01T06:01:40;5.70;1.00
29777;DHT22;16677;52.224;7.484;2023-02-01T06:04:07;5.70;1.00
29777;DHT22;16677;52.224;7.484;2023-02-01T06:06:34;5.70;1.00
29777;DHT22;16677;52.224;7.484;2023-02-01T06:09:01;5.80;1.00
29777;DHT22;16677;52.224;7.484;2023-02-01T06:11:28;5.80;1.00
29777;DHT22;16677;52.224;7.484;2023-02-01T06:13:59;5.80;1.00
29777;DHT22;16677;52.224;7.484;2023-02-01T06:16:27;5.80;1.00
29777;DHT22;16677;52.224;7.484;2023-02-01T06:18:54;5.90;1.00
29777;DHT22;16677;52.224;7.484;2023-02-01T06:21:21;5.90;1.00
29777;DHT22;16677;52.224;7.484;2023-02-01T06:23:53;5.90;1.00
29777;DHT22;16677;52.224;7.484;2023-02-01T06:26:20;6.00;1.00
29777;DHT22;16677;52.224;7.484;2023-02-01T06:28:47;6.10;1.00
29777;DHT22;16677;52.224;7.484;2023-02-01T06:31:14;6.00;1.00
29777;DHT22;16677;52.224;7.484;2023-02-01T06:33:41;6.10;1.00
29777;DHT22;16677;52.224;7.484;2023-02-01T06:36:10;6.10;1.00
29777;DHT22;16677;52.224;7.484;2023-02-01T06:38:39;6.10;1.00
29777;DHT22;16677;52.224;7.484;2023-02-01T06:41:06;6.10;1.00
29777;DHT22;16677;52.224;7.484;2023-02-01T06:43:33;6.10;1.00
29777;DHT22;16677;52.224;7.484;2023-02-01T06:46:05;6.10;1.00
29777;DHT22;16677;52.224;7.484;2023-02-01T06:48:33;6.10;1.00
29777;DHT22;16677;52.224;7.484;2023-02-01T06:51:00;6.00;1.00
29777;DHT22;16677;52.224;7.484;2023-02-01T06:53:26;6.10;1.00
29777;DHT22;16677;52.224;7.484;2023-02-01T06:55:59;6.10;1.00
29777;DHT22;16677;52.224;7.484;2023-02-01T06:58:30;6.00;1.00
29777;DHT22;16677;52.224;7.484;2023-02-01T07:00:58;6.00;1.00
29777;DHT22;16677;52.224;7.484;2023-02-01T07:03:25;6.00;1.00
29777;DHT22;16677;52.224;7.484;2023-02-01T07:05:56;6.10;1.00
29777;DHT22;16677;52.224;7.484;2023-02-01T07:08:27;6.00;1.00
29777;DHT22;16677;52.224;7.484;2023-02-01T07:10:54;6.10;1.00
29777;DHT22;16677;52.224;7.484;2023-02-01T07:13:21;6.00;1.00
29777;DHT22;16677;52.224;7.484;2023-02-01T07:15:48;6.10;1.00
29777;DHT22;16677;52.224;7.484;2023-02-01T07:18:15;6.20;1.00
29777;DHT22;16677;52.224;7.484;2023-02-01T07:20:42;6.10;1.00
29777;DHT22;16677;52.224;7.484;2023-02-01T07:23:12;6.20;1.00
29777;DHT22;16677;52.224;7.484;2023-02-01T07:25:39;6.20;1.00
29777;DHT22;16677;52.224;7.484;2023-02-01T07:28:06;6.10;1.00
29777;DHT22;16677;52.224;7.484;2023-02-01T07:30:33;6.20;1.00
29777;DHT22;16677;52.224;7.484;2023-02-01T07:32:59;6.20;1.00
29777;DHT22;16677;52.224;7.484;2023-02-01T07:35:28;6.20;1.00
29777;DHT22;16677;52.224;7.484;2023-02-01T07:37:57;6.20;99.90
29777;DHT22;16677;52.224;7.484;2023-02-01T07:40:24;6.30;1.00
29777;DHT22;16677;52.224;7.484;2023-02-01T07:42:55;6.30;99.90
29777;DHT22;16677;52.224;7.484;2023-02-01T07:45:23;6.00;99.90
29777;DHT22;16677;52.224;7.484;2023-02-01T07:47:52;6.30;1.00
29777;DHT22;16677;52.224;7.484;2023-02-01T07:50:20;6.30;1.00
29777;DHT22;16677;52.224;7.484;2023-02-01T07:52:47;6.40;1.00
29777;DHT22;16677;52.224;7.484;2023-02-01T07:55:14;6.40;99.90
29777;DHT22;16677;52.224;7.484;2023-02-01T07:57:41;6.50;99.90
29777;DHT22;16677;52.224;7.484;2023-02-01T08:00:09;6.50;99.90
29777;DHT22;16677;52.224;7.484;2023-02-01T08:02:58;6.50;99.90
29777;DHT22;16677;52.224;7.484;2023-02-01T08:05:25;6.60;99.90
29777;DHT22;16677;52.224;7.484;2023-02-01T08:07:52;6.60;99.90
29777;DHT22;16677;52.224;7.484;2023-02-01T08:10:19;6.60;99.90
29777;DHT22;16677;52.224;7.484;2023-02-01T08:12:46;6.70;99.90
29777;DHT22;16677;52.224;7.484;2023-02-01T08:15:15;6.70;99.90
29777;DHT22;16677;52.224;7.484;2023-02-01T08:17:49;6.70;99.90
29777;DHT22;16677;52.224;7.484;2023-02-01T08:20:18;6.70;99.90
29777;DHT22;16677;52.224;7.484;2023-02-01T08:22:45;6.70;99.90
29777;DHT22;16677;52.224;7.484;2023-02-01T08:25:12;6.70;99.90
29777;DHT22;16677;52.224;7.484;2023-02-01T08:27:39;6.70;99.90
29777;DHT22;16677;52.224;7.484;2023-02-01T08:30:06;6.70;99.90
29777;DHT22;16677;52.224;7.484;2023-02-01T08:32:34;6.80;99.90
29777;DHT22;16677;52.224;7.484;2023-02-01T08:35:03;6.80;99.90
29777;DHT22;16677;52.224;7.484;2023-02-01T08:37:30;6.70;99.90
29777;DHT22;16677;52.224;7.484;2023-02-01T08:39:57;6.80;99.90
29777;DHT22;16677;52.224;7.484;2023-02-01T08:42:24;6.80;99.90
29777;DHT22;16677;52.224;7.484;2023-02-01T08:45:10;6.80;99.90
29777;DHT22;16677;52.224;7.484;2023-02-01T08:47:37;6.80;99.90
29777;DHT22;16677;52.224;7.484;2023-02-01T08:50:05;6.90;99.90
29777;DHT22;16677;52.224;7.484;2023-02-01T08:52:32;6.90;99.90
29777;DHT22;16677;52.224;7.484;2023-02-01T08:54:58;6.90;99.90
29777;DHT22;16677;52.224;7.484;2023-02-01T08:57:25;6.90;99.90
29777;DHT22;16677;52.224;7.484;2023-02-01T08:59:52;6.90;99.90
29777;DHT22;16677;52.224;7.484;2023-02-01T09:02:19;6.90;99.90
29777;DHT22;16677;52.224;7.484;2023-02-01T09:04:46;6.90;99.90
29777;DHT22;16677;52.224;7.484;2023-02-01T09:07:13;7.00;99.90
29777;DHT22;16677;52.224;7.484;2023-02-01T09:09:40;6.90;99.90
29777;DHT22;16677;52.224;7.484;2023-02-01T09:12:07;6.80;99.90
29777;DHT22;16677;52.224;7.484;2023-02-01T09:14:34;7.00;99.90
29777;DHT22;16677;52.224;7.484;2023-02-01T09:17:01;7.00;99.90
29777;DHT22;16677;52.224;7.484;2023-02-01T09:19:27;7.00;99.90
29777;DHT22;16677;52.224;7.484;2023-02-01T09:21:54;7.00;99.90
29777;DHT22;16677;52.224;7.484;2023-02-01T09:24:22;7.00;99.90
29777;DHT22;16677;52.224;7.484;2023-02-01T09:26:49;7.00;99.90
29777;DHT22;16677;52.224;7.484;2023-02-01T09:29:16;7.00;99.90
29777;DHT22;16677;52.224;7.484;2023-02-01T09:31:43;7.00;99.90
29777;DHT22;16677;52.224;7.484;2023-02-01T09:34:28;7.00;99.90
29777;DHT22;16677;52.224;7.484;2023-02-01T09:36:55;7.10;99.90
29777;DHT22;16677;52.224;7.484;2023-02-01T09:39:22;7.10;99.90
29777;DHT22;16677;52.224;7.484;2023-02-01T09:41:59;7.10;99.90
29777;DHT22;16677;52.224;7.484;2023-02-01T09:44:52;7.10;99.90
29777;DHT22;16677;52.224;7.484;2023-02-01T09:47:22;7.10;99.90
29777;DHT22;16677;52.224;7.484;2023-02-01T09:49:56;7.00;99.90
29777;DHT22;16677;52.224;7.484;2023-02-01T09:52:46;7.10;99.90
29777;DHT22;16677;52.224;7.484;2023-02-01T09:55:38;7.10;99.90
29777;DHT22;16677;52.224;7.484;2023-02-01T10:00:48;7.10;99.90
29777;DHT22;16677;52.224;7.484;2023-02-01T10:03:16;7.10;99.90
29777;DHT22;16677;52.224;7.484;2023-02-01T10:20:26;7.10;99.90
29777;DHT22;16677;52.224;7.484;2023-02-01T10:28:38;7.20;99.90
29777;DHT22;16677;52.224;7.484;2023-02-01T10:31:08;7.20;99.90
29777;DHT22;16677;52.224;7.484;2023-02-01T10:36:16;7.30;99.90
29777;DHT22;16677;52.224;7.484;2023-02-01T10:38:46;7.30;99.90
29777;DHT22;16677;52.224;7.484;2023-02-01T10:41:21;7.30;99.90
29777;DHT22;16677;52.224;7.484;2023-02-01T10:43:55;7.30;99.90
29777;DHT22;16677;52.224;7.484;2023-02-01T10:46:23;7.30;99.90
29777;DHT22;16677;52.224;7.484;2023-02-01T10:48:53;7.30;99.90
29777;DHT22;16677;52.224;7.484;2023-02-01T10:51:29;7.30;99.90
29777;DHT22;16677;52.224;7.484;2023-02-01T10:54:00;7.30;99.90
29777;DHT22;16677;52.224;7.484;2023-02-01T10:56:28;7.30;99.90
29777;DHT22;16677;52.224;7.484;2023-02-01T10:59:04;7.20;99.90
29777;DHT22;16677;52.224;7.484;2023-02-01T11:01:37;7.30;99.90
29777;DHT22;16677;52.224;7.484;2023-02-01T11:04:10;7.30;99.90
29777;DHT22;16677;52.224;7.484;2023-02-01T11:09:49;7.00;99.90
29777;DHT22;16677;52.224;7.484;2023-02-01T11:12:37;6.90;1.00
29777;DHT22;16677;52.224;7.484;2023-02-01T11:15:20;6.70;1.00
29777;DHT22;16677;52.224;7.484;2023-02-01T11:17:50;6.60;1.00
29777;DHT22;16677;52.224;7.484;2023-02-01T11:20:42;6.40;1.00
29777;DHT22;16677;52.224;7.484;2023-02-01T11:23:17;6.40;1.00
29777;DHT22;16677;52.224;7.484;2023-02-01T11:25:50;6.10;1.00
29777;DHT22;16677;52.224;7.484;2023-02-01T11:28:19;6.30;1.00
29777;DHT22;16677;52.224;7.484;2023-02-01T11:30:48;6.20;1.00
29777;DHT22;16677;52.224;7.484;2023-02-01T11:33:18;6.30;1.00
29777;DHT22;16677;52.224;7.484;2023-02-01T11:35:47;6.30;1.00
29777;DHT22;16677;52.224;7.484;2023-02-01T11:38:30;6.30;1.00
29777;DHT22;16677;52.224;7.484;2023-02-01T11:41:23;6.30;1.00
29777;DHT22;16677;52.224;7.484;2023-02-01T11:43:59;6.20;1.00
29777;DHT22;16677;52.224;7.484;2023-02-01T11:46:33;6.20;1.00
29777;DHT22;16677;52.224;7.484;2023-02-01T11:49:19;6.20;99.90
29777;DHT22;16677;52.224;7.484;2023-02-01T12:16:28;6.10;1.00
29777;DHT22;16677;52.224;7.484;2023-02-01T12:25:09;6.20;1.00
29777;DHT22;16677;52.224;7.484;2023-02-01T12:27:44;6.30;99.90
29777;DHT22;16677;52.224;7.484;2023-02-01T12:33:27;6.40;99.90
29777;DHT22;16677;52.224;7.484;2023-02-01T12:36:12;6.40;99.90
29777;DHT22;16677;52.224;7.484;2023-02-01T12:41:50;6.50;99.90
29777;DHT22;16677;52.224;7.484;2023-02-01T12:44:24;6.60;99.90
29777;DHT22;16677;52.224;7.484;2023-02-01T12:49:48;6.60;99.90
29777;DHT22;16677;52.224;7.484;2023-02-01T12:52:46;6.70;99.90
29777;DHT22;16677;52.224;7.484;2023-02-01T12:58:11;6.60;1.00
29777;DHT22;16677;52.224;7.484;2023-02-01T13:03:32;6.70;29.30
29777;DHT22;16677;52.224;7.484;2023-02-01T13:06:39;6.70;1.00
29777;DHT22;16677;52.224;7.484;2023-02-01T13:09:42;6.70;1.00
29777;DHT22;16677;52.224;7.484;2023-02-01T13:11:49;6.80;1.00
29777;DHT22;16677;52.224;7.484;2023-02-01T13:17:14;6.90;1.00
29777;DHT22;16677;52.224;7.484;2023-02-01T13:19:49;6.80;1.00
29777;DHT22;16677;52.224;7.484;2023-02-01T13:22:22;6.70;1.00
29777;DHT22;16677;52.224;7.484;2023-02-01T13:25:04;6.60;99.90
29777;DHT22;16677;52.224;7.484;2023-02-01T13:27:32;6.40;50.80
29777;DHT22;16677;52.224;7.484;2023-02-01T13:30:10;6.40;18.40
29777;DHT22;16677;52.224;7.484;2023-02-01T13:36:34;6.30;99.90
29777;DHT22;16677;52.224;7.484;2023-02-01T13:41:55;6.50;1.00
29777;DHT22;16677;52.224;7.484;2023-02-01T13:47:00;6.50;1.00
29777;DHT22;16677;52.224;7.484;2023-02-01T13:49:36;6.50;99.90
29777;DHT22;16677;52.224;7.484;2023-02-01T13:52:04;6.40;1.00
29777;DHT22;16677;52.224;7.484;2023-02-01T13:54:34;6.40;1.00
29777;DHT22;16677;52.224;7.484;2023-02-01T13:57:04;6.50;1.00
29777;DHT22;16677;52.224;7.484;2023-02-01T14:10:55;6.40;1.00
29777;DHT22;16677;52.224;7.484;2023-02-01T14:29:32;6.10;99.90
29777;DHT22;16677;52.224;7.484;2023-02-01T14:32:06;6.10;99.90
29777;DHT22;16677;52.224;7.484;2023-02-01T14:42:25;5.90;99.90
29777;DHT22;16677;52.224;7.484;2023-02-01T14:45:46;5.90;99.90
29777;DHT22;16677;52.224;7.484;2023-02-01T14:47:41;6.00;99.90
29777;DHT22;16677;52.224;7.484;2023-02-01T14:50:31;6.10;99.90
29777;DHT22;16677;52.224;7.484;2023-02-01T15:01:19;6.40;99.90
29777;DHT22;16677;52.224;7.484;2023-02-01T15:09:16;6.50;99.90
29777;DHT22;16677;52.224;7.484;2023-02-01T15:12:02;6.50;99.90
29777;DHT22;16677;52.224;7.484;2023-02-01T15:14:34;6.50;99.90
29777;DHT22;16677;52.224;7.484;2023-02-01T15:17:15;6.60;99.90
29777;DHT22;16677;52.224;7.484;2023-02-01T15:19:56;6.60;99.90
29777;DHT22;16677;52.224;7.484;2023-02-01T15:22:24;6.70;1.00
29777;DHT22;16677;52.224;7.484;2023-02-01T15:24:56;6.80;1.00
29777;DHT22;16677;52.224;7.484;2023-02-01T15:27:24;6.90;1.00
29777;DHT22;16677;52.224;7.484;2023-02-01T15:29:51;6.90;1.00
29777;DHT22;16677;52.224;7.484;2023-02-01T15:32:34;6.80;1.00
29777;DHT22;16677;52.224;7.484;2023-02-01T15:35:02;6.70;1.00
29777;DHT22;16677;52.224;7.484;2023-02-01T15:37:29;6.60;1.00
29777;DHT22;16677;52.224;7.484;2023-02-01T15:42:47;6.60;1.00
29777;DHT22;16677;52.224;7.484;2023-02-01T15:45:18;6.70;1.00
29777;DHT22;16677;52.224;7.484;2023-02-01T15:47:50;6.90;1.00
29777;DHT22;16677;52.224;7.484;2023-02-01T15:50:19;6.90;99.90
29777;DHT22;16677;52.224;7.484;2023-02-01T15:52:51;6.80;1.00
29777;DHT22;16677;52.224;7.484;2023-02-01T15:55:23;6.80;1.00
29777;DHT22;16677;52.224;7.484;2023-02-01T15:57:56;6.80;1.00
29777;DHT22;16677;52.224;7.484;2023-02-01T16:00:46;6.90;1.00
29777;DHT22;16677;52.224;7.484;2023-02-01T16:03:36;6.90;1.00
29777;DHT22;16677;52.224;7.484;2023-02-01T16:06:12;6.90;1.00
29777;DHT22;16677;52.224;7.484;2023-02-01T16:08:59;6.80;1.00
29777;DHT22;16677;52.224;7.484;2023-02-01T16:11:32;6.80;1.00
29777;DHT22;16677;52.224;7.484;2023-02-01T16:14:00;6.70;1.00
29777;DHT22;16677;52.224;7.484;2023-02-01T16:16:28;6.80;1.00
29777;DHT22;16677;52.224;7.484;2023-02-01T16:18:56;6.80;1.00
29777;DHT22;16677;52.224;7.484;2023-02-01T16:21:23;6.80;1.00
29777;DHT22;16677;52.224;7.484;2023-02-01T16:23:50;6.80;99.90
29777;DHT22;16677;52.224;7.484;2023-02-01T16:26:19;6.80;99.90
29777;DHT22;16677;52.224;7.484;2023-02-01T16:28:47;6.80;1.00
29777;DHT22;16677;52.224;7.484;2023-02-01T16:31:16;6.80;1.00
29777;DHT22;16677;52.224;7.484;2023-02-01T16:36:21;6.90;1.00
29777;DHT22;16677;52.224;7.484;2023-02-01T16:38:48;6.90;99.90
29777;DHT22;16677;52.224;7.484;2023-02-01T16:41:17;6.90;99.90
29777;DHT22;16677;52.224;7.484;2023-02-01T16:43:45;6.90;99.90
29777;DHT22;16677;52.224;7.484;2023-02-01T16:46:15;7.10;99.90
29777;DHT22;16677;52.224;7.484;2023-02-01T16:48:46;7.00;99.90
29777;DHT22;16677;52.224;7.484;2023-02-01T16:51:15;7.00;99.90
29777;DHT22;16677;52.224;7.484;2023-02-01T16:53:44;6.80;99.90
29777;DHT22;16677;52.224;7.484;2023-02-01T16:56:21;6.80;99.90
29777;DHT22;16677;52.224;7.484;2023-02-01T16:58:48;6.90;99.90
29777;DHT22;16677;52.224;7.484;2023-02-01T17:01:17;7.10;1.00
29777;DHT22;16677;52.224;7.484;2023-02-01T17:03:45;7.10;1.00
29777;DHT22;16677;52.224;7.484;2023-02-01T17:06:18;7.10;1.00
29777;DHT22;16677;52.224;7.484;2023-02-01T17:08:57;7.10;1.00
29777;DHT22;16677;52.224;7.484;2023-02-01T17:11:28;7.10;1.00
29777;DHT22;16677;52.224;7.484;2023-02-01T17:14:19;7.30;1.00
29777;DHT22;16677;52.224;7.484;2023-02-01T17:16:45;7.30;1.00
29777;DHT22;16677;52.224;7.484;2023-02-01T17:19:16;7.20;99.90
29777;DHT22;16677;52.224;7.484;2023-02-01T17:21:54;7.10;1.00
29777;DHT22;16677;52.224;7.484;2023-02-01T17:24:27;7.10;1.00
29777;DHT22;16677;52.224;7.484;2023-02-01T17:27:12;7.10;1.00
29777;DHT22;16677;52.224;7.484;2023-02-01T17:29:39;7.20;99.90
29777;DHT22;16677;52.224;7.484;2023-02-01T17:32:19;7.20;1.00
29777;DHT22;16677;52.224;7.484;2023-02-01T17:34:48;7.30;1.00
29777;DHT22;16677;52.224;7.484;2023-02-01T17:39:51;7.30;1.00
29777;DHT22;16677;52.224;7.484;2023-02-01T17:42:21;7.30;1.00
29777;DHT22;16677;52.224;7.484;2023-02-01T17:44:51;7.20;41.10
29777;DHT22;16677;52.224;7.484;2023-02-01T17:47:18;7.20;1.00
29777;DHT22;16677;52.224;7.484;2023-02-01T17:49:45;7.20;1.00
29777;DHT22;16677;52.224;7.484;2023-02-01T17:52:16;7.20;49.10
29777;DHT22;16677;52.224;7.484;2023-02-01T17:54:44;7.30;99.90
29777;DHT22;16677;52.224;7.484;2023-02-01T17:57:13;7.30;1.00
29777;DHT22;16677;52.224;7.484;2023-02-01T17:59:40;7.30;1.00
29777;DHT22;16677;52.224;7.484;2023-02-01T18:02:21;7.30;1.00
29777;DHT22;16677;52.224;7.484;2023-02-01T18:04:49;7.30;18.90
29777;DHT22;16677;52.224;7.484;2023-02-01T18:07:16;7.20;1.00
29777;DHT22;16677;52.224;7.484;2023-02-01T18:09:43;7.30;1.00
29777;DHT22;16677;52.224;7.484;2023-02-01T18:12:21;7.30;99.90
29777;DHT22;16677;52.224;7.484;2023-02-01T18:14:49;7.10;99.90
29777;DHT22;16677;52.224;7.484;2023-02-01T18:17:17;7.10;99.90
29777;DHT22;16677;52.224;7.484;2023-02-01T18:19:45;7.10;99.90
29777;DHT22;16677;52.224;7.484;2023-02-01T18:22:21;7.10;1.00
29777;DHT22;16677;52.224;7.484;2023-02-01T18:24:49;7.10;1.00
29777;DHT22;16677;52.224;7.484;2023-02-01T18:27:16;7.10;1.00
29777;DHT22;16677;52.224;7.484;2023-02-01T18:29:51;7.10;1.00
29777;DHT22;16677;52.224;7.484;2023-02-01T18:32:18;7.20;1.00
29777;DHT22;16677;52.224;7.484;2023-02-01T18:34:45;6.90;99.90
29777;DHT22;16677;52.224;7.484;2023-02-01T18:37:12;6.90;99.90
29777;DHT22;16677;52.224;7.484;2023-02-01T18:39:39;6.80;99.90
29777;DHT22;16677;52.224;7.484;2023-02-01T18:42:08;6.80;99.90
29777;DHT22;16677;52.224;7.484;2023-02-01T18:44:36;6.80;99.90
29777;DHT22;16677;52.224;7.484;2023-02-01T18:47:03;6.80;99.90
29777;DHT22;16677;52.224;7.484;2023-02-01T18:49:29;6.90;99.90
29777;DHT22;16677;52.224;7.484;2023-02-01T18:51:56;6.90;99.90
29777;DHT22;16677;52.224;7.484;2023-02-01T18:54:23;6.90;99.90
29777;DHT22;16677;52.224;7.484;2023-02-01T18:56:51;6.80;99.90
29777;DHT22;16677;52.224;7.484;2023-02-01T18:59:18;6.80;99.90
29777;DHT22;16677;52.224;7.484;2023-02-01T19:01:45;6.80;99.90
29777;DHT22;16677;52.224;7.484;2023-02-01T19:04:12;6.90;99.90
29777;DHT22;16677;52.224;7.484;2023-02-01T19:06:52;6.70;1.00
29777;DHT22;16677;52.224;7.484;2023-02-01T19:09:19;6.60;99.90
29777;DHT22;16677;52.224;7.484;2023-02-01T19:11:47;6.60;99.90
29777;DHT22;16677;52.224;7.484;2023-02-01T19:14:14;6.60;1.00
29777;DHT22;16677;52.224;7.484;2023-02-01T19:16:42;6.90;99.90
29777;DHT22;16677;52.224;7.484;2023-02-01T19:19:08;6.70;99.90
29777;DHT22;16677;52.224;7.484;2023-02-01T19:21:35;6.60;99.90